Allen, Michigan
Current Conditions -  °F | °C
As of 4:34 PM on Friday 31 Oct 2014 (Local Time) from KJYM Reporting Station
Light Rain Light Rain  
Wind Chill: 27°   Ceiling: 1600
Heat Index: 37°   Visibility: 7mi
Dew Point: 35°   Wind: 16mph
Humidity: 92%   Direction: 10°N
Pressure: 29.95"   Gusts: 31mph
Location:  41.96°N, 84.77°W
Report Text: KJYM 312034Z AUTO 01014G27KT 7SM -RA BKN016 OVC020 03/02 A2995 RMK AO2 T00270015
Loading
Personal Weather Stations






























Interactive Weather Map
Tropical Storm Tracking
New forecast layout! Learn more

10-Day Weather Forecast

Advertisements
Track Severe Weather on mobile